Yellow Pine, ID (83677)

4:41 PM MDT on August 30, 2015 (GMT -0600)
MesoWest | | Change Station
CLOSE
Current Station
Personal Weather Station
Location: Yellow Pine, ID
Elevation: 6594 ft
Nearby Weather Stations

Elev 6594 ft 44.90 °N, 115.34 °W | Updated 26 minutes ago

Partly Cloudy
Partly Cloudy
57 °F
Feels Like 57 °F
N
16
Wind Variable Wind from SW
Gusts 0.0 mph

Today
High -- | Low -- °F
--% Chance of Precip.
Yesterday
High -- | Low -- °F
Precip. -- in
7:00 AM 8:22 PM
Full, 98% visible
Pressure 29.95 in
Visibility 10.0 miles
Clouds Few 6500 ft
Scattered Clouds 8000 ft
Dew Point 27 °F
Humidity 31%
Rainfall in
Snow Depth Not available.
UV 5 out of 12
Pollen 6.90 out of 12
Air Quality Not available.
Flu Activity Not available.
METAR KMYL 302151Z AUTO 18011KT 10SM FEW065 SCT080 17/03 A3004 RMK AO2 SLP141 T01720028
Pressure 29.95 in
Visibility 10.0 miles
Clouds Few 6500 ft
Scattered Clouds 8000 ft
Dew Point 27 °F
Humidity 31%
Rainfall in
Snow Depth Not available.
UV 5 out of 12
Pollen 6.90 out of 12
Air Quality Not available.
Flu Activity Not available.
METAR KMYL 302151Z AUTO 18011KT 10SM FEW065 SCT080 17/03 A3004 RMK AO2 SLP141 T01720028

10-Day Weather Forecast

×

Almanac

Astronomy

Aug. 30, 2015 Rise Set
Actual Time
Civil Twilight
Nautical Twilight
Astronomical Twilight
Moon
Length of Visible Light
Length of Day
Tomorrow will be .
, % of the Moon is Illuminated

Today's Extremes

State Highs State Lows

Community

WunderPhotos

Upload Photos

1,851,075 photos uploaded!

WunderBlogs® & News

Nearby

Air Quality

  Air Quality AQ Index Pollutant
Not available.

Snow Depth

Station Depth Elevation

Earthquake Activity

City Distance Mag. Time & Date
Minimum magnitude displayed is 2.5.

Coastal Water Temperatures

Place Temperature

Stations

Nearby Weather Stations

Station Location Temp. Windchill Dew Point Humidity Wind Precip. Elev Updated Type